sensor_id;sensor_type;location;lat;lon;timestamp;temperature;humidity
612;DHT22;293;53.888;11.464;2023-08-08T00:02:19;14.30;99.90
612;DHT22;293;53.888;11.464;2023-08-08T00:04:46;14.30;99.90
612;DHT22;293;53.888;11.464;2023-08-08T00:07:13;14.30;99.90
612;DHT22;293;53.888;11.464;2023-08-08T00:09:40;14.30;99.90
612;DHT22;293;53.888;11.464;2023-08-08T00:12:08;14.40;99.90
612;DHT22;293;53.888;11.464;2023-08-08T00:14:35;14.50;99.90
612;DHT22;293;53.888;11.464;2023-08-08T00:17:02;14.50;99.90
612;DHT22;293;53.888;11.464;2023-08-08T00:19:29;14.40;99.90
612;DHT22;293;53.888;11.464;2023-08-08T00:21:56;14.40;99.90
612;DHT22;293;53.888;11.464;2023-08-08T00:24:23;14.20;99.90
612;DHT22;293;53.888;11.464;2023-08-08T00:26:50;14.30;99.90
612;DHT22;293;53.888;11.464;2023-08-08T00:29:18;14.30;99.90
612;DHT22;293;53.888;11.464;2023-08-08T00:31:45;14.20;99.90
612;DHT22;293;53.888;11.464;2023-08-08T00:34:12;14.20;99.90
612;DHT22;293;53.888;11.464;2023-08-08T00:36:38;14.30;99.90
612;DHT22;293;53.888;11.464;2023-08-08T00:39:05;14.30;99.90
612;DHT22;293;53.888;11.464;2023-08-08T00:41:33;14.30;99.90
612;DHT22;293;53.888;11.464;2023-08-08T00:44:00;14.40;99.90
612;DHT22;293;53.888;11.464;2023-08-08T00:46:28;14.30;99.90
612;DHT22;293;53.888;11.464;2023-08-08T00:48:55;14.40;99.90
612;DHT22;293;53.888;11.464;2023-08-08T00:51:23;14.30;99.90
612;DHT22;293;53.888;11.464;2023-08-08T00:53:50;14.40;99.90
612;DHT22;293;53.888;11.464;2023-08-08T00:56:18;14.30;99.90
612;DHT22;293;53.888;11.464;2023-08-08T00:58:45;14.30;99.90
612;DHT22;293;53.888;11.464;2023-08-08T01:01:12;14.30;99.90
612;DHT22;293;53.888;11.464;2023-08-08T01:03:41;14.20;99.90
612;DHT22;293;53.888;11.464;2023-08-08T01:06:12;14.10;99.90
612;DHT22;293;53.888;11.464;2023-08-08T01:08:45;14.10;99.90
612;DHT22;293;53.888;11.464;2023-08-08T01:11:15;14.10;99.90
612;DHT22;293;53.888;11.464;2023-08-08T01:13:42;14.10;99.90
612;DHT22;293;53.888;11.464;2023-08-08T01:16:10;14.10;99.90
612;DHT22;293;53.888;11.464;2023-08-08T01:18:38;14.20;99.90
612;DHT22;293;53.888;11.464;2023-08-08T01:21:07;14.20;99.90
612;DHT22;293;53.888;11.464;2023-08-08T01:23:42;14.30;99.90
612;DHT22;293;53.888;11.464;2023-08-08T01:26:12;14.20;99.90
612;DHT22;293;53.888;11.464;2023-08-08T01:28:39;14.20;99.90
612;DHT22;293;53.888;11.464;2023-08-08T01:31:06;14.10;99.90
612;DHT22;293;53.888;11.464;2023-08-08T01:33:33;14.20;99.90
612;DHT22;293;53.888;11.464;2023-08-08T01:36:04;14.20;99.90
612;DHT22;293;53.888;11.464;2023-08-08T01:38:38;14.20;99.90
612;DHT22;293;53.888;11.464;2023-08-08T01:41:07;14.10;99.90
612;DHT22;293;53.888;11.464;2023-08-08T01:43:37;14.10;99.90
612;DHT22;293;53.888;11.464;2023-08-08T01:46:05;14.10;99.90
612;DHT22;293;53.888;11.464;2023-08-08T01:48:33;13.90;99.90
612;DHT22;293;53.888;11.464;2023-08-08T01:51:00;13.90;99.90
612;DHT22;293;53.888;11.464;2023-08-08T01:53:27;13.90;99.90
612;DHT22;293;53.888;11.464;2023-08-08T01:55:53;13.90;99.90
612;DHT22;293;53.888;11.464;2023-08-08T01:58:20;13.80;99.90
612;DHT22;293;53.888;11.464;2023-08-08T02:00:49;13.70;99.90
612;DHT22;293;53.888;11.464;2023-08-08T02:03:15;13.70;99.90
612;DHT22;293;53.888;11.464;2023-08-08T02:05:42;13.70;99.90
612;DHT22;293;53.888;11.464;2023-08-08T02:08:09;13.90;99.90
612;DHT22;293;53.888;11.464;2023-08-08T02:10:36;13.90;99.90
612;DHT22;293;53.888;11.464;2023-08-08T02:13:03;13.90;99.90
612;DHT22;293;53.888;11.464;2023-08-08T02:15:30;14.00;99.90
612;DHT22;293;53.888;11.464;2023-08-08T02:17:59;14.00;99.90
612;DHT22;293;53.888;11.464;2023-08-08T02:20:26;13.90;99.90
612;DHT22;293;53.888;11.464;2023-08-08T02:22:53;13.90;99.90
612;DHT22;293;53.888;11.464;2023-08-08T02:25:20;13.90;99.90
612;DHT22;293;53.888;11.464;2023-08-08T02:27:47;13.80;99.90
612;DHT22;293;53.888;11.464;2023-08-08T02:30:14;13.80;99.90
612;DHT22;293;53.888;11.464;2023-08-08T02:32:41;13.80;99.90
612;DHT22;293;53.888;11.464;2023-08-08T02:35:09;13.70;99.90
612;DHT22;293;53.888;11.464;2023-08-08T02:37:36;13.60;99.90
612;DHT22;293;53.888;11.464;2023-08-08T02:40:03;13.60;99.90
612;DHT22;293;53.888;11.464;2023-08-08T02:42:31;13.60;99.90
612;DHT22;293;53.888;11.464;2023-08-08T02:44:57;13.60;99.90
612;DHT22;293;53.888;11.464;2023-08-08T02:47:24;13.60;99.90
612;DHT22;293;53.888;11.464;2023-08-08T02:49:51;13.70;99.90
612;DHT22;293;53.888;11.464;2023-08-08T02:52:19;13.60;99.90
612;DHT22;293;53.888;11.464;2023-08-08T02:54:46;13.70;99.90
612;DHT22;293;53.888;11.464;2023-08-08T02:57:13;13.70;99.90
612;DHT22;293;53.888;11.464;2023-08-08T02:59:40;13.70;99.90
612;DHT22;293;53.888;11.464;2023-08-08T03:02:07;13.80;99.90
612;DHT22;293;53.888;11.464;2023-08-08T03:04:34;13.80;99.90
612;DHT22;293;53.888;11.464;2023-08-08T03:07:00;13.80;99.90
612;DHT22;293;53.888;11.464;2023-08-08T03:09:31;13.80;99.90
612;DHT22;293;53.888;11.464;2023-08-08T03:11:57;13.90;99.90
612;DHT22;293;53.888;11.464;2023-08-08T03:14:24;14.00;99.90
612;DHT22;293;53.888;11.464;2023-08-08T03:16:51;14.10;99.90
612;DHT22;293;53.888;11.464;2023-08-08T03:19:18;14.00;99.90
612;DHT22;293;53.888;11.464;2023-08-08T03:21:45;14.00;99.90
612;DHT22;293;53.888;11.464;2023-08-08T03:24:12;14.10;99.90
612;DHT22;293;53.888;11.464;2023-08-08T03:26:40;14.10;99.90
612;DHT22;293;53.888;11.464;2023-08-08T03:29:07;14.10;99.90
612;DHT22;293;53.888;11.464;2023-08-08T03:31:36;14.00;99.90
612;DHT22;293;53.888;11.464;2023-08-08T03:34:03;14.00;99.90
612;DHT22;293;53.888;11.464;2023-08-08T03:36:30;13.90;99.90
612;DHT22;293;53.888;11.464;2023-08-08T03:38:57;13.90;99.90
612;DHT22;293;53.888;11.464;2023-08-08T03:41:23;13.80;99.90
612;DHT22;293;53.888;11.464;2023-08-08T03:43:52;13.80;99.90
612;DHT22;293;53.888;11.464;2023-08-08T03:46:18;13.70;99.90
612;DHT22;293;53.888;11.464;2023-08-08T03:48:45;13.70;99.90
612;DHT22;293;53.888;11.464;2023-08-08T03:51:12;13.70;99.90
612;DHT22;293;53.888;11.464;2023-08-08T03:53:39;13.70;99.90
612;DHT22;293;53.888;11.464;2023-08-08T03:56:06;13.70;99.90
612;DHT22;293;53.888;11.464;2023-08-08T03:58:33;13.90;99.90
612;DHT22;293;53.888;11.464;2023-08-08T04:01:02;13.90;99.90
612;DHT22;293;53.888;11.464;2023-08-08T04:03:29;13.90;99.90
612;DHT22;293;53.888;11.464;2023-08-08T04:05:56;13.90;99.90
612;DHT22;293;53.888;11.464;2023-08-08T04:08:23;14.00;99.90
612;DHT22;293;53.888;11.464;2023-08-08T04:10:50;14.10;99.90
612;DHT22;293;53.888;11.464;2023-08-08T04:13:16;14.00;99.90
612;DHT22;293;53.888;11.464;2023-08-08T04:15:44;14.10;99.90
612;DHT22;293;53.888;11.464;2023-08-08T04:18:12;14.20;99.90
612;DHT22;293;53.888;11.464;2023-08-08T04:20:39;14.20;99.90
612;DHT22;293;53.888;11.464;2023-08-08T04:23:06;14.30;99.90
612;DHT22;293;53.888;11.464;2023-08-08T04:25:33;14.30;99.90
612;DHT22;293;53.888;11.464;2023-08-08T04:27:59;14.30;99.90
612;DHT22;293;53.888;11.464;2023-08-08T04:30:26;14.30;99.90
612;DHT22;293;53.888;11.464;2023-08-08T04:32:53;14.40;99.90
612;DHT22;293;53.888;11.464;2023-08-08T04:35:21;14.40;99.90
612;DHT22;293;53.888;11.464;2023-08-08T04:37:48;14.30;99.90
612;DHT22;293;53.888;11.464;2023-08-08T04:40:15;14.30;99.90
612;DHT22;293;53.888;11.464;2023-08-08T04:42:42;14.30;99.90
612;DHT22;293;53.888;11.464;2023-08-08T04:45:09;14.40;99.90
612;DHT22;293;53.888;11.464;2023-08-08T04:47:36;14.40;99.90
612;DHT22;293;53.888;11.464;2023-08-08T04:50:04;14.50;99.90
612;DHT22;293;53.888;11.464;2023-08-08T04:52:33;14.70;99.90
612;DHT22;293;53.888;11.464;2023-08-08T04:55:00;15.00;99.90
612;DHT22;293;53.888;11.464;2023-08-08T04:57:27;15.60;99.90
612;DHT22;293;53.888;11.464;2023-08-08T04:59:54;15.80;99.90
612;DHT22;293;53.888;11.464;2023-08-08T05:02:21;15.90;99.90
612;DHT22;293;53.888;11.464;2023-08-08T05:04:48;16.10;99.90
612;DHT22;293;53.888;11.464;2023-08-08T05:07:15;15.80;99.90
612;DHT22;293;53.888;11.464;2023-08-08T05:09:43;15.90;99.90
612;DHT22;293;53.888;11.464;2023-08-08T05:12:10;16.00;99.90
612;DHT22;293;53.888;11.464;2023-08-08T05:14:37;16.30;99.90
612;DHT22;293;53.888;11.464;2023-08-08T05:17:04;16.80;99.90
612;DHT22;293;53.888;11.464;2023-08-08T05:19:31;17.50;99.90
612;DHT22;293;53.888;11.464;2023-08-08T05:21:59;18.00;99.90
612;DHT22;293;53.888;11.464;2023-08-08T05:24:26;17.90;99.90
612;DHT22;293;53.888;11.464;2023-08-08T05:26:54;17.30;99.90
612;DHT22;293;53.888;11.464;2023-08-08T05:29:21;16.80;99.90
612;DHT22;293;53.888;11.464;2023-08-08T05:31:48;16.50;99.90
612;DHT22;293;53.888;11.464;2023-08-08T05:34:15;17.60;99.90
612;DHT22;293;53.888;11.464;2023-08-08T05:36:42;19.30;99.90
612;DHT22;293;53.888;11.464;2023-08-08T05:39:09;20.50;99.90
612;DHT22;293;53.888;11.464;2023-08-08T05:41:36;21.20;99.00
612;DHT22;293;53.888;11.464;2023-08-08T05:44:04;21.80;97.80
612;DHT22;293;53.888;11.464;2023-08-08T05:46:31;22.40;96.80
612;DHT22;293;53.888;11.464;2023-08-08T05:48:58;23.10;95.50
612;DHT22;293;53.888;11.464;2023-08-08T05:51:26;23.80;94.80
612;DHT22;293;53.888;11.464;2023-08-08T05:53:53;25.60;92.40
612;DHT22;293;53.888;11.464;2023-08-08T05:56:20;25.90;92.50
612;DHT22;293;53.888;11.464;2023-08-08T05:58:47;26.30;87.20
612;DHT22;293;53.888;11.464;2023-08-08T06:01:17;25.50;87.10
612;DHT22;293;53.888;11.464;2023-08-08T06:03:44;24.50;90.20
612;DHT22;293;53.888;11.464;2023-08-08T06:06:13;24.60;91.00
612;DHT22;293;53.888;11.464;2023-08-08T06:08:40;24.60;90.20
612;DHT22;293;53.888;11.464;2023-08-08T06:11:08;23.50;90.70
612;DHT22;293;53.888;11.464;2023-08-08T06:13:35;22.40;92.10
612;DHT22;293;53.888;11.464;2023-08-08T06:16:02;21.30;93.80
612;DHT22;293;53.888;11.464;2023-08-08T06:18:34;21.40;95.20
612;DHT22;293;53.888;11.464;2023-08-08T06:21:01;22.30;94.20
612;DHT22;293;53.888;11.464;2023-08-08T06:23:29;21.90;93.30
612;DHT22;293;53.888;11.464;2023-08-08T06:25:56;21.10;94.50
612;DHT22;293;53.888;11.464;2023-08-08T06:28:24;20.10;96.60
612;DHT22;293;53.888;11.464;2023-08-08T06:30:52;19.50;97.40
612;DHT22;293;53.888;11.464;2023-08-08T06:33:19;18.70;99.50
612;DHT22;293;53.888;11.464;2023-08-08T06:35:48;18.30;99.90
612;DHT22;293;53.888;11.464;2023-08-08T06:38:15;17.70;99.90
612;DHT22;293;53.888;11.464;2023-08-08T06:40:43;17.30;99.90
612;DHT22;293;53.888;11.464;2023-08-08T06:43:11;17.30;99.90
612;DHT22;293;53.888;11.464;2023-08-08T06:45:38;18.00;99.90
612;DHT22;293;53.888;11.464;2023-08-08T06:48:06;18.80;99.90
612;DHT22;293;53.888;11.464;2023-08-08T06:50:34;19.20;99.90
612;DHT22;293;53.888;11.464;2023-08-08T06:53:03;19.30;99.90
612;DHT22;293;53.888;11.464;2023-08-08T06:55:31;19.50;99.90
612;DHT22;293;53.888;11.464;2023-08-08T06:57:58;19.60;99.90
612;DHT22;293;53.888;11.464;2023-08-08T07:00:25;19.40;99.90
612;DHT22;293;53.888;11.464;2023-08-08T07:02:53;18.60;99.90
612;DHT22;293;53.888;11.464;2023-08-08T07:05:21;18.00;99.90
612;DHT22;293;53.888;11.464;2023-08-08T07:07:49;17.90;99.90
612;DHT22;293;53.888;11.464;2023-08-08T07:10:18;17.90;99.90
612;DHT22;293;53.888;11.464;2023-08-08T07:12:46;18.00;99.90
612;DHT22;293;53.888;11.464;2023-08-08T07:15:14;18.00;99.90
612;DHT22;293;53.888;11.464;2023-08-08T07:17:42;17.90;99.90
612;DHT22;293;53.888;11.464;2023-08-08T07:20:10;17.80;99.90
612;DHT22;293;53.888;11.464;2023-08-08T07:22:40;17.60;99.90
612;DHT22;293;53.888;11.464;2023-08-08T07:25:07;17.90;99.90
612;DHT22;293;53.888;11.464;2023-08-08T07:27:36;17.80;99.90
612;DHT22;293;53.888;11.464;2023-08-08T07:30:03;17.80;99.90
612;DHT22;293;53.888;11.464;2023-08-08T07:32:32;17.50;99.90
612;DHT22;293;53.888;11.464;2023-08-08T07:34:59;17.30;99.90
612;DHT22;293;53.888;11.464;2023-08-08T07:37:30;17.20;99.90
612;DHT22;293;53.888;11.464;2023-08-08T07:39:57;16.90;99.90
612;DHT22;293;53.888;11.464;2023-08-08T07:42:24;16.80;99.90
612;DHT22;293;53.888;11.464;2023-08-08T07:44:52;16.70;99.90
612;DHT22;293;53.888;11.464;2023-08-08T07:47:19;16.80;99.90
612;DHT22;293;53.888;11.464;2023-08-08T07:49:46;16.90;99.90
612;DHT22;293;53.888;11.464;2023-08-08T07:52:13;17.00;99.90
612;DHT22;293;53.888;11.464;2023-08-08T07:54:39;17.10;99.90
612;DHT22;293;53.888;11.464;2023-08-08T07:57:06;17.20;99.90
612;DHT22;293;53.888;11.464;2023-08-08T07:59:33;17.10;99.90
612;DHT22;293;53.888;11.464;2023-08-08T08:02:02;17.20;99.90
612;DHT22;293;53.888;11.464;2023-08-08T08:04:29;17.30;99.90
612;DHT22;293;53.888;11.464;2023-08-08T08:06:56;17.30;99.90
612;DHT22;293;53.888;11.464;2023-08-08T08:09:23;17.40;99.90
612;DHT22;293;53.888;11.464;2023-08-08T08:11:51;17.50;99.90
612;DHT22;293;53.888;11.464;2023-08-08T08:14:18;17.70;99.90
612;DHT22;293;53.888;11.464;2023-08-08T08:16:46;17.90;99.90
612;DHT22;293;53.888;11.464;2023-08-08T08:19:15;18.20;99.90
612;DHT22;293;53.888;11.464;2023-08-08T08:21:42;18.40;99.90
612;DHT22;293;53.888;11.464;2023-08-08T08:24:10;18.60;99.90
612;DHT22;293;53.888;11.464;2023-08-08T08:26:36;18.80;99.90
612;DHT22;293;53.888;11.464;2023-08-08T08:29:03;18.90;99.90
612;DHT22;293;53.888;11.464;2023-08-08T08:31:30;18.80;99.90
612;DHT22;293;53.888;11.464;2023-08-08T08:33:57;18.70;99.90
612;DHT22;293;53.888;11.464;2023-08-08T08:36:25;18.80;99.90
612;DHT22;293;53.888;11.464;2023-08-08T08:38:52;18.80;99.90
612;DHT22;293;53.888;11.464;2023-08-08T08:41:25;18.70;99.90
612;DHT22;293;53.888;11.464;2023-08-08T08:43:52;18.60;99.90
612;DHT22;293;53.888;11.464;2023-08-08T08:46:21;18.60;99.90
612;DHT22;293;53.888;11.464;2023-08-08T08:48:49;18.60;99.90
612;DHT22;293;53.888;11.464;2023-08-08T08:51:17;18.60;99.90
612;DHT22;293;53.888;11.464;2023-08-08T08:53:45;18.70;99.90
612;DHT22;293;53.888;11.464;2023-08-08T08:56:13;18.90;99.90
612;DHT22;293;53.888;11.464;2023-08-08T08:58:40;19.00;99.90
612;DHT22;293;53.888;11.464;2023-08-08T09:01:07;19.10;99.90
612;DHT22;293;53.888;11.464;2023-08-08T09:03:35;19.30;99.90
612;DHT22;293;53.888;11.464;2023-08-08T09:06:02;19.30;99.90
612;DHT22;293;53.888;11.464;2023-08-08T09:08:29;19.30;99.90
612;DHT22;293;53.888;11.464;2023-08-08T09:10:58;19.40;99.90
612;DHT22;293;53.888;11.464;2023-08-08T09:13:24;19.40;99.60
612;DHT22;293;53.888;11.464;2023-08-08T09:15:52;19.50;99.90
612;DHT22;293;53.888;11.464;2023-08-08T09:18:23;19.30;99.00
612;DHT22;293;53.888;11.464;2023-08-08T09:20:50;19.90;99.50
612;DHT22;293;53.888;11.464;2023-08-08T09:23:17;19.40;99.30
612;DHT22;293;53.888;11.464;2023-08-08T09:25:44;19.50;98.50
612;DHT22;293;53.888;11.464;2023-08-08T09:28:13;19.60;99.00
612;DHT22;293;53.888;11.464;2023-08-08T09:30:41;19.40;99.90
612;DHT22;293;53.888;11.464;2023-08-08T09:33:08;18.90;99.90
612;DHT22;293;53.888;11.464;2023-08-08T09:35:38;18.30;99.90
612;DHT22;293;53.888;11.464;2023-08-08T09:38:05;17.70;99.90
612;DHT22;293;53.888;11.464;2023-08-08T09:40:32;17.30;99.90
612;DHT22;293;53.888;11.464;2023-08-08T09:42:59;17.20;99.90
612;DHT22;293;53.888;11.464;2023-08-08T09:45:35;17.10;99.90
612;DHT22;293;53.888;11.464;2023-08-08T09:48:03;17.30;99.90
612;DHT22;293;53.888;11.464;2023-08-08T09:50:30;17.40;99.90
612;DHT22;293;53.888;11.464;2023-08-08T09:52:58;17.50;99.90
612;DHT22;293;53.888;11.464;2023-08-08T09:55:26;17.60;99.90
612;DHT22;293;53.888;11.464;2023-08-08T09:57:53;17.60;99.90
612;DHT22;293;53.888;11.464;2023-08-08T10:00:20;17.80;99.90
612;DHT22;293;53.888;11.464;2023-08-08T10:02:50;18.00;99.90
612;DHT22;293;53.888;11.464;2023-08-08T10:05:17;18.00;99.90
612;DHT22;293;53.888;11.464;2023-08-08T10:07:44;18.10;99.90
612;DHT22;293;53.888;11.464;2023-08-08T10:10:11;18.20;99.90
612;DHT22;293;53.888;11.464;2023-08-08T10:12:39;18.30;99.90
612;DHT22;293;53.888;11.464;2023-08-08T10:15:07;18.40;99.90
612;DHT22;293;53.888;11.464;2023-08-08T10:17:36;18.40;99.90
612;DHT22;293;53.888;11.464;2023-08-08T10:20:07;18.50;99.90
612;DHT22;293;53.888;11.464;2023-08-08T10:22:37;18.40;99.90
612;DHT22;293;53.888;11.464;2023-08-08T10:25:06;18.50;99.90
612;DHT22;293;53.888;11.464;2023-08-08T10:27:35;18.50;99.90
612;DHT22;293;53.888;11.464;2023-08-08T10:30:07;18.70;99.90
612;DHT22;293;53.888;11.464;2023-08-08T10:32:39;18.50;99.90
612;DHT22;293;53.888;11.464;2023-08-08T10:35:09;18.30;99.90
612;DHT22;293;53.888;11.464;2023-08-08T10:37:37;18.10;99.90
612;DHT22;293;53.888;11.464;2023-08-08T10:40:05;18.00;99.90
612;DHT22;293;53.888;11.464;2023-08-08T10:42:41;18.00;99.90
612;DHT22;293;53.888;11.464;2023-08-08T10:45:10;18.00;99.90
612;DHT22;293;53.888;11.464;2023-08-08T10:47:38;18.00;99.90
612;DHT22;293;53.888;11.464;2023-08-08T10:50:09;18.20;99.90
612;DHT22;293;53.888;11.464;2023-08-08T10:52:51;18.20;99.90
612;DHT22;293;53.888;11.464;2023-08-08T10:55:19;18.30;99.90
612;DHT22;293;53.888;11.464;2023-08-08T10:57:54;18.40;99.90
612;DHT22;293;53.888;11.464;2023-08-08T11:00:25;18.40;99.90
612;DHT22;293;53.888;11.464;2023-08-08T11:02:53;18.50;99.90
612;DHT22;293;53.888;11.464;2023-08-08T11:05:23;18.50;99.90
612;DHT22;293;53.888;11.464;2023-08-08T11:07:50;18.50;99.90
612;DHT22;293;53.888;11.464;2023-08-08T11:10:17;18.60;99.90
612;DHT22;293;53.888;11.464;2023-08-08T11:12:53;18.60;99.90
612;DHT22;293;53.888;11.464;2023-08-08T11:15:20;18.70;99.90
612;DHT22;293;53.888;11.464;2023-08-08T11:17:48;18.80;99.90
612;DHT22;293;53.888;11.464;2023-08-08T11:20:15;18.80;99.80
612;DHT22;293;53.888;11.464;2023-08-08T11:22:43;18.80;99.30
612;DHT22;293;53.888;11.464;2023-08-08T11:25:10;18.90;98.50
612;DHT22;293;53.888;11.464;2023-08-08T11:27:48;18.80;98.40
612;DHT22;293;53.888;11.464;2023-08-08T11:30:15;18.80;98.10
612;DHT22;293;53.888;11.464;2023-08-08T11:32:42;18.70;98.40
612;DHT22;293;53.888;11.464;2023-08-08T11:35:09;18.80;98.20
612;DHT22;293;53.888;11.464;2023-08-08T11:37:37;18.80;98.00
612;DHT22;293;53.888;11.464;2023-08-08T11:40:07;19.00;98.20
612;DHT22;293;53.888;11.464;2023-08-08T11:42:34;19.10;97.60
612;DHT22;293;53.888;11.464;2023-08-08T11:45:01;19.20;97.90
612;DHT22;293;53.888;11.464;2023-08-08T11:47:30;19.30;97.20
612;DHT22;293;53.888;11.464;2023-08-08T11:50:02;19.20;96.60
612;DHT22;293;53.888;11.464;2023-08-08T11:52:29;19.20;96.80
612;DHT22;293;53.888;11.464;2023-08-08T11:54:58;19.20;96.60
612;DHT22;293;53.888;11.464;2023-08-08T11:57:26;19.10;96.50
612;DHT22;293;53.888;11.464;2023-08-08T11:59:53;19.10;96.70
612;DHT22;293;53.888;11.464;2023-08-08T12:02:22;19.10;97.00
612;DHT22;293;53.888;11.464;2023-08-08T12:04:49;19.20;96.60
612;DHT22;293;53.888;11.464;2023-08-08T12:07:17;19.20;96.80
612;DHT22;293;53.888;11.464;2023-08-08T12:09:46;19.20;96.80
612;DHT22;293;53.888;11.464;2023-08-08T12:12:13;19.20;97.30
612;DHT22;293;53.888;11.464;2023-08-08T12:14:43;19.30;97.40
612;DHT22;293;53.888;11.464;2023-08-08T12:17:10;19.40;97.30
612;DHT22;293;53.888;11.464;2023-08-08T12:19:45;19.60;97.50
612;DHT22;293;53.888;11.464;2023-08-08T12:22:12;20.00;97.30
612;DHT22;293;53.888;11.464;2023-08-08T12:24:39;20.20;96.90
612;DHT22;293;53.888;11.464;2023-08-08T12:27:06;20.40;97.10
612;DHT22;293;53.888;11.464;2023-08-08T12:29:32;20.60;94.80
612;DHT22;293;53.888;11.464;2023-08-08T12:32:01;20.70;94.50
612;DHT22;293;53.888;11.464;2023-08-08T12:34:28;20.60;93.80
612;DHT22;293;53.888;11.464;2023-08-08T12:36:55;20.60;93.70
612;DHT22;293;53.888;11.464;2023-08-08T12:39:22;20.70;93.60
612;DHT22;293;53.888;11.464;2023-08-08T12:41:49;20.70;94.00
612;DHT22;293;53.888;11.464;2023-08-08T12:44:16;20.70;93.50
612;DHT22;293;53.888;11.464;2023-08-08T12:46:43;20.60;93.50
612;DHT22;293;53.888;11.464;2023-08-08T12:49:11;20.60;93.40
612;DHT22;293;53.888;11.464;2023-08-08T12:51:38;20.50;93.60
612;DHT22;293;53.888;11.464;2023-08-08T12:54:05;20.40;93.70
612;DHT22;293;53.888;11.464;2023-08-08T12:56:32;20.40;94.00
612;DHT22;293;53.888;11.464;2023-08-08T12:58:59;20.40;94.40
612;DHT22;293;53.888;11.464;2023-08-08T13:01:28;20.30;93.40
612;DHT22;293;53.888;11.464;2023-08-08T13:03:55;20.10;93.50
612;DHT22;293;53.888;11.464;2023-08-08T13:06:23;20.00;93.70
612;DHT22;293;53.888;11.464;2023-08-08T13:08:50;19.80;94.30
612;DHT22;293;53.888;11.464;2023-08-08T13:11:17;19.50;97.90
612;DHT22;293;53.888;11.464;2023-08-08T13:13:44;19.30;99.70
612;DHT22;293;53.888;11.464;2023-08-08T13:16:11;19.40;99.90
612;DHT22;293;53.888;11.464;2023-08-08T13:18:38;19.40;99.60
612;DHT22;293;53.888;11.464;2023-08-08T13:21:05;19.40;98.20
612;DHT22;293;53.888;11.464;2023-08-08T13:23:34;18.90;99.90
612;DHT22;293;53.888;11.464;2023-08-08T13:26:00;18.20;99.90
612;DHT22;293;53.888;11.464;2023-08-08T13:28:29;18.00;99.90
612;DHT22;293;53.888;11.464;2023-08-08T13:30:56;17.90;99.90
612;DHT22;293;53.888;11.464;2023-08-08T13:33:22;17.90;99.90
612;DHT22;293;53.888;11.464;2023-08-08T13:35:49;18.10;99.90
612;DHT22;293;53.888;11.464;2023-08-08T13:38:16;18.20;99.90
612;DHT22;293;53.888;11.464;2023-08-08T13:40:44;18.40;99.90
612;DHT22;293;53.888;11.464;2023-08-08T13:43:11;18.50;99.90
612;DHT22;293;53.888;11.464;2023-08-08T13:45:38;18.50;99.90
612;DHT22;293;53.888;11.464;2023-08-08T13:48:05;18.50;99.90
612;DHT22;293;53.888;11.464;2023-08-08T13:50:32;18.70;99.90
612;DHT22;293;53.888;11.464;2023-08-08T13:52:59;18.80;99.90
612;DHT22;293;53.888;11.464;2023-08-08T13:55:26;18.90;99.90
612;DHT22;293;53.888;11.464;2023-08-08T13:57:54;19.00;99.90
612;DHT22;293;53.888;11.464;2023-08-08T14:00:22;19.20;99.90
612;DHT22;293;53.888;11.464;2023-08-08T14:02:49;19.40;99.90
612;DHT22;293;53.888;11.464;2023-08-08T14:05:16;19.30;99.90
612;DHT22;293;53.888;11.464;2023-08-08T14:07:43;19.30;99.90
612;DHT22;293;53.888;11.464;2023-08-08T14:10:10;19.00;99.90
612;DHT22;293;53.888;11.464;2023-08-08T14:12:38;18.70;99.90
612;DHT22;293;53.888;11.464;2023-08-08T14:15:07;17.90;99.90
612;DHT22;293;53.888;11.464;2023-08-08T14:17:34;17.00;99.90
612;DHT22;293;53.888;11.464;2023-08-08T14:20:01;16.30;99.90
612;DHT22;293;53.888;11.464;2023-08-08T14:22:30;15.80;99.90
612;DHT22;293;53.888;11.464;2023-08-08T14:24:57;15.40;99.90
612;DHT22;293;53.888;11.464;2023-08-08T14:27:23;15.10;99.90
612;DHT22;293;53.888;11.464;2023-08-08T14:29:50;14.90;99.90
612;DHT22;293;53.888;11.464;2023-08-08T14:32:18;14.70;99.90
612;DHT22;293;53.888;11.464;2023-08-08T14:34:45;14.70;99.90
612;DHT22;293;53.888;11.464;2023-08-08T14:37:12;14.80;99.90
612;DHT22;293;53.888;11.464;2023-08-08T14:39:39;15.10;99.90
612;DHT22;293;53.888;11.464;2023-08-08T14:42:06;15.30;99.90
612;DHT22;293;53.888;11.464;2023-08-08T14:44:33;15.50;99.90
612;DHT22;293;53.888;11.464;2023-08-08T14:47:00;15.60;99.90
612;DHT22;293;53.888;11.464;2023-08-08T14:49:28;15.70;99.90
612;DHT22;293;53.888;11.464;2023-08-08T14:51:55;15.80;99.90
612;DHT22;293;53.888;11.464;2023-08-08T14:54:22;15.90;99.90
612;DHT22;293;53.888;11.464;2023-08-08T14:56:49;15.80;99.90
612;DHT22;293;53.888;11.464;2023-08-08T14:59:16;15.90;99.90
612;DHT22;293;53.888;11.464;2023-08-08T15:01:43;15.80;99.90
612;DHT22;293;53.888;11.464;2023-08-08T15:04:09;15.70;99.90
612;DHT22;293;53.888;11.464;2023-08-08T15:06:38;15.70;99.90
612;DHT22;293;53.888;11.464;2023-08-08T15:09:07;15.70;99.90
612;DHT22;293;53.888;11.464;2023-08-08T15:11:33;15.90;99.90
612;DHT22;293;53.888;11.464;2023-08-08T15:14:00;16.00;99.90
612;DHT22;293;53.888;11.464;2023-08-08T15:16:28;16.00;99.90
612;DHT22;293;53.888;11.464;2023-08-08T15:18:55;16.20;99.90
612;DHT22;293;53.888;11.464;2023-08-08T15:21:22;16.40;99.90
612;DHT22;293;53.888;11.464;2023-08-08T15:23:50;16.60;99.90
612;DHT22;293;53.888;11.464;2023-08-08T15:26:17;16.70;99.90
612;DHT22;293;53.888;11.464;2023-08-08T15:28:46;16.80;99.90
612;DHT22;293;53.888;11.464;2023-08-08T15:31:12;16.70;99.90
612;DHT22;293;53.888;11.464;2023-08-08T15:33:39;16.60;99.90
612;DHT22;293;53.888;11.464;2023-08-08T15:36:06;16.60;99.90
612;DHT22;293;53.888;11.464;2023-08-08T15:38:33;16.70;99.90
612;DHT22;293;53.888;11.464;2023-08-08T15:41:01;16.80;99.90
612;DHT22;293;53.888;11.464;2023-08-08T15:43:28;16.80;99.90
612;DHT22;293;53.888;11.464;2023-08-08T15:45:56;16.80;99.90
612;DHT22;293;53.888;11.464;2023-08-08T15:48:23;16.80;99.90
612;DHT22;293;53.888;11.464;2023-08-08T15:50:50;16.90;99.90
612;DHT22;293;53.888;11.464;2023-08-08T15:53:17;17.00;99.90
612;DHT22;293;53.888;11.464;2023-08-08T15:55:45;17.00;99.90
612;DHT22;293;53.888;11.464;2023-08-08T15:58:13;16.90;99.90
612;DHT22;293;53.888;11.464;2023-08-08T16:00:40;16.90;99.90
612;DHT22;293;53.888;11.464;2023-08-08T16:03:07;16.80;99.90
612;DHT22;293;53.888;11.464;2023-08-08T16:05:34;16.70;99.90
612;DHT22;293;53.888;11.464;2023-08-08T16:08:00;16.60;99.90
612;DHT22;293;53.888;11.464;2023-08-08T16:10:27;16.70;99.90
612;DHT22;293;53.888;11.464;2023-08-08T16:12:54;16.80;99.90
612;DHT22;293;53.888;11.464;2023-08-08T16:15:23;16.90;99.90
612;DHT22;293;53.888;11.464;2023-08-08T16:17:50;17.00;99.90
612;DHT22;293;53.888;11.464;2023-08-08T16:20:17;17.10;99.90